Dunkirk, New York
Current Conditions -  °F | °C
As of 8:53 PM on Monday 24 Nov 2014 (Local Time) from KDKK Reporting Station
Broken Clouds Broken Clouds  
Wind Chill:   Ceiling: 4400
Heat Index:   Visibility: 10mi
Dew Point:   Wind: 15mph
Humidity: 79%   Direction: 240°WSW
Pressure: 29.64"   Gusts: 24mph
Location:  42.49°N, 79.34°W
Report Text: KDKK 250153Z AUTO 24013G21KT 10SM BKN044 07/03 A2964 RMK AO2 PK WND 22028/0112 SLP038 T00670033
Loading
Personal Weather Stations






























Interactive Weather Map New forecast layout! Learn more

10-Day Weather Forecast

Advertisements
Track Severe Weather on mobile